»·PEaware :: N130LM KEWR-KJFK

N130LM :: KEWR-KJFK

FLIGHT INFORMATION

Flight Status: Arrived
Operator: Privately registered:
United States
More flights under this callsign
Pilot: Justin M. (19723)
Aircraft: DASSAULT AVIATION FALCON 50
(FA50)
More flights by this aircraft type
Origin: KEWR Newark Intl
United States
Destination: KJFK Kennedy Intl
United States
More flights between these airports :: More routes between these airports
Route: EWR4 BREZY V39 CMK V419 JUDDS NELIE MAD V1 DPK
File this flight plan on PilotEdge
Remarks:
Altitude:
(Current/Filed)
11,000ft
Speed:
(Current/Filed)
250kts
Departed: 01-Dec-22 06:42 AM
Arrived: 01-Dec-22 07:39 AM
Distance/Time
Traveled:
11nm/0:57
Distance/Time
To Go:
Arrived

Flight Plot

Page will automatically refresh every two minutes.

Flight plan parsing failed; only flown route is shown


Map Options




Map Legend


Flown Route
Filed Route
Departure Airport
Arrival Airport
Navaid (VOR, NDB)
Fix

Horizontal Profiles

Position Reports

Time Latitude Longitude Heading Altitude Ground
Speed
01-Dec-22 06:23 40.704187 -74.167368 183 14ft 0kts
01-Dec-22 06:24 40.704187 -74.167368 183 14ft 0kts
01-Dec-22 06:25 40.704187 -74.167368 183 14ft 0kts
01-Dec-22 06:26 40.704187 -74.167368 183 14ft 0kts
01-Dec-22 06:27 40.704187 -74.167368 183 14ft 0kts
01-Dec-22 06:28 40.704187 -74.167368 183 14ft 0kts
01-Dec-22 06:29 40.704187 -74.167368 183 14ft 0kts
01-Dec-22 06:30 40.704187 -74.167368 183 14ft 0kts
01-Dec-22 06:31 40.704187 -74.167368 183 14ft 0kts
01-Dec-22 06:32 40.704187 -74.167368 183 14ft 0kts
01-Dec-22 06:33 40.703769 -74.167375 185 14ft 8kts
01-Dec-22 06:34 40.703333 -74.172517 274 14ft 13kts
01-Dec-22 06:35 40.703546 -74.177248 274 14ft 20kts
01-Dec-22 06:36 40.703698 -74.179581 271 14ft 0kts
01-Dec-22 06:37 40.703698 -74.179581 271 14ft 0kts
01-Dec-22 06:38 40.703698 -74.179581 271 14ft 0kts
01-Dec-22 06:39 40.703698 -74.179581 271 14ft 0kts
01-Dec-22 06:40 40.703698 -74.179581 271 14ft 0kts
01-Dec-22 06:41 40.702409 -74.174816 95 14ft 97kts
01-Dec-22 06:42 40.717940 -74.117774 47 2259ft 231kts
01-Dec-22 06:43 40.774781 -74.080034 329 6100ft 265kts
01-Dec-22 06:44 40.797134 -74.172594 286 9410ft 285kts
01-Dec-22 06:45 40.866038 -74.203587 10 10504ft 303kts
01-Dec-22 06:46 40.952263 -74.183146 10 11005ft 334kts
01-Dec-22 06:47 41.047701 -74.160807 10 11000ft 357kts
01-Dec-22 06:48 41.141046 -74.120175 38 11001ft 363kts
01-Dec-22 06:49 41.187855 -74.003046 73 11000ft 367kts
01-Dec-22 06:50 41.216431 -73.872302 73 11000ft 367kts
01-Dec-22 06:51 41.244880 -73.742351 73 11000ft 367kts
01-Dec-22 06:52 41.273778 -73.611671 69 10997ft 367kts
01-Dec-22 06:53 41.336099 -73.506055 44 10999ft 367kts
01-Dec-22 06:54 41.408410 -73.409777 44 11000ft 367kts
01-Dec-22 06:55 41.480442 -73.313320 45 11000ft 367kts
01-Dec-22 06:56 41.552552 -73.216930 44 11000ft 367kts
01-Dec-22 06:57 41.624986 -73.120842 44 11000ft 367kts
01-Dec-22 06:58 41.695062 -73.021812 60 10986ft 368kts
01-Dec-22 06:59 41.674164 -72.900320 144 10999ft 369kts
01-Dec-22 07:00 41.585245 -72.846858 156 10989ft 316kts
01-Dec-22 07:01 41.510967 -72.804469 156 10995ft 273kts
01-Dec-22 07:02 41.443904 -72.766176 156 10996ft 253kts
01-Dec-22 07:03 41.380733 -72.730159 156 10998ft 242kts
01-Dec-22 07:04 41.319902 -72.695546 156 10998ft 235kts
01-Dec-22 07:05 41.300020 -72.630855 47 11012ft 228kts
01-Dec-22 07:06 41.358787 -72.629341 342 11000ft 229kts
01-Dec-22 07:07 41.407681 -72.674769 271 11016ft 231kts
01-Dec-22 07:08 41.360410 -72.707293 167 11004ft 232kts
01-Dec-22 07:09 41.303497 -72.730782 220 11000ft 235kts
01-Dec-22 07:10 41.250848 -72.790379 220 11010ft 277kts
01-Dec-22 07:11 41.187055 -72.862303 220 11004ft 320kts
01-Dec-22 07:12 41.120782 -72.936868 220 10470ft 290kts
01-Dec-22 07:13 41.059525 -73.005580 220 8476ft 286kts
01-Dec-22 07:14 41.000057 -73.072089 220 6581ft 273kts
01-Dec-22 07:15 40.943194 -73.135555 220 5995ft 259kts
01-Dec-22 07:16 40.886925 -73.198165 220 6002ft 274kts
01-Dec-22 07:17 40.828096 -73.263513 220 6000ft 277kts
01-Dec-22 07:18 40.787586 -73.345932 262 5822ft 271kts
01-Dec-22 07:19 40.778482 -73.443215 263 4621ft 270kts
01-Dec-22 07:20 40.769292 -73.539871 263 3416ft 258kts
01-Dec-22 07:21 40.756597 -73.629877 239 2478ft 230kts
01-Dec-22 07:22 40.712721 -73.683642 219 1942ft 233kts
01-Dec-22 07:23 40.670071 -73.729835 217 850ft 151kts
01-Dec-22 07:24 40.636318 -73.759688 195 934ft 173kts
01-Dec-22 07:25 40.578087 -73.771030 204 3014ft 235kts
01-Dec-22 07:26 40.519884 -73.809846 205 4714ft 231kts
01-Dec-22 07:27 40.473556 -73.782956 80 5013ft 241kts
01-Dec-22 07:28 40.514262 -73.715745 46 4998ft 232kts
01-Dec-22 07:29 40.557654 -73.654580 46 4999ft 226kts
01-Dec-22 07:30 40.600464 -73.594337 44 4999ft 224kts
01-Dec-22 07:31 40.657229 -73.553189 26 4107ft 224kts
01-Dec-22 07:32 40.711349 -73.517106 24 3096ft 214kts
01-Dec-22 07:33 40.754956 -73.545786 279 2998ft 167kts
01-Dec-22 07:34 40.758204 -73.624279 253 2994ft 214kts
01-Dec-22 07:35 40.718716 -73.676010 218 2582ft 197kts
01-Dec-22 07:36 40.679495 -73.722147 233 827ft 182kts
01-Dec-22 07:37 40.652850 -73.761548 209 238ft 130kts
01-Dec-22 07:38 40.630575 -73.778912 223 12ft 29kts
01-Dec-22 07:39 40.631981 -73.780217 7 12ft 25kts
01-Dec-22 07:40 40.634638 -73.783661 298 12ft 20kts
01-Dec-22 07:45 40.855943 -74.053902 137 11ft 0kts

Navigation Log

Ident Type
Flight plan parsing failed, navigation log unavailable